This is the latest recevied weather packets stored in our database for station/object NK0Z-13. If no packets are shown the sender has not sent any weather packets the latest 10 day(s).
| Time | Temp. | Humidity | Pressure | Rain* | Wind** | Luminosity | Snow |
|---|---|---|---|---|---|---|---|
| 1777519307 | 7.78° C | 78% | 1021.4 hPa | 0 mm | - | 0 W/m² | - |
| 1777518706 | 8.89° C | 75% | 1021.4 hPa | 0 mm | - | 0 W/m² | - |
| 1777518104 | 9.44° C | 75% | 1021.2 hPa | 0 mm | - | 0 W/m² | - |
| 1777517502 | 10° C | 71% | 1021.1 hPa | 0 mm | - | 0 W/m² | - |
| 1777516899 | 10° C | 73% | 1021.1 hPa | 0 mm | - | 0 W/m² | - |
| 1777516297 | 10.56° C | 69% | 1021 hPa | 0 mm | - | 0 W/m² | - |
| 1777515695 | 11.11° C | 67% | 1020.8 hPa | 0 mm | - | 0 W/m² | - |
| 1777515095 | 11.67° C | 67% | 1020.8 hPa | 0 mm | - | 0 W/m² | - |
| 1777514494 | 12.78° C | 63% | 1020.4 hPa | 0 mm | - | 0 W/m² | - |
| 1777513893 | 12.78° C | 62% | 1020.2 hPa | 0 mm | - | 0 W/m² | - |
| 1777513293 | 12.22° C | 63% | 1020.1 hPa | 0 mm | - | 0 W/m² | - |
| 1777512692 | 12.78° C | 61% | 1020.1 hPa | 0 mm | - | 0 W/m² | - |
| 1777512092 | 13.33° C | 58% | 1020.2 hPa | 0 mm | - | 3 W/m² | - |
| 1777511486 | 13.89° C | 55% | 1019.8 hPa | 0 mm | - | 9 W/m² | - |
| 1777510885 | 13.89° C | 56% | 1019.9 hPa | 0 mm | - | 16 W/m² | - |
| 1777510283 | 15° C | 55% | 1019.8 hPa | 0 mm | - | 29 W/m² | - |
| 1777509681 | 15.56° C | 53% | 1019.5 hPa | 0 mm | - | 56 W/m² | - |
| 1777509081 | 15.56° C | 52% | 1019.7 hPa | 0 mm | - | 102 W/m² | - |
| 1777508475 | 15° C | 53% | 1019.7 hPa | 0 mm | - | 67 W/m² | - |
| 1777507875 | 15.56° C | 51% | 1019.8 hPa | 0 mm | - | 71 W/m² | - |
| 1777507275 | 15.56° C | 51% | 1019.5 hPa | 0 mm | - | 104 W/m² | - |
| 1777506675 | 15.56° C | 52% | 1019.7 hPa | 0 mm | - | 69 W/m² | - |
| 1777506073 | 15.56° C | 52% | 1019.4 hPa | 0 mm | - | 77 W/m² | - |
| 1777505472 | 15.56° C | 50% | 1019.3 hPa | 0 mm | - | 100 W/m² | - |
| 1777504871 | 16.11° C | 47% | 1019.5 hPa | 0 mm | - | 133 W/m² | - |
* Rain latest hour (hover to see other rain measurements)
** Current wind speed in m/s (hover to see current wind gust speed)